sensor_id;sensor_type;location;lat;lon;timestamp;temperature;humidity
18741;DHT22;9499;52.472;13.448;2023-12-04T00:01:48;-3.00;99.90
18741;DHT22;9499;52.472;13.448;2023-12-04T00:04:15;-3.10;99.90
18741;DHT22;9499;52.472;13.448;2023-12-04T00:06:44;-3.00;99.90
18741;DHT22;9499;52.472;13.448;2023-12-04T00:09:13;-3.00;99.90
18741;DHT22;9499;52.472;13.448;2023-12-04T00:11:40;-3.10;99.90
18741;DHT22;9499;52.472;13.448;2023-12-04T00:14:06;-3.10;99.90
18741;DHT22;9499;52.472;13.448;2023-12-04T00:16:33;-3.10;99.90
18741;DHT22;9499;52.472;13.448;2023-12-04T00:19:06;-3.20;99.90
18741;DHT22;9499;52.472;13.448;2023-12-04T00:21:32;-3.10;99.90
18741;DHT22;9499;52.472;13.448;2023-12-04T00:24:00;-3.10;99.90
18741;DHT22;9499;52.472;13.448;2023-12-04T00:26:27;-3.10;99.90
18741;DHT22;9499;52.472;13.448;2023-12-04T00:28:54;-3.10;99.90
18741;DHT22;9499;52.472;13.448;2023-12-04T00:31:20;-3.20;99.90
18741;DHT22;9499;52.472;13.448;2023-12-04T00:33:47;-3.20;99.90
18741;DHT22;9499;52.472;13.448;2023-12-04T00:36:16;-3.20;99.90
18741;DHT22;9499;52.472;13.448;2023-12-04T00:38:44;-3.30;99.90
18741;DHT22;9499;52.472;13.448;2023-12-04T00:41:13;-3.30;99.90
18741;DHT22;9499;52.472;13.448;2023-12-04T00:43:40;-3.20;99.90
18741;DHT22;9499;52.472;13.448;2023-12-04T00:46:06;-3.20;99.90
18741;DHT22;9499;52.472;13.448;2023-12-04T00:48:33;-3.20;99.90
18741;DHT22;9499;52.472;13.448;2023-12-04T00:51:00;-3.20;99.90
18741;DHT22;9499;52.472;13.448;2023-12-04T00:53:26;-3.20;99.90
18741;DHT22;9499;52.472;13.448;2023-12-04T00:55:53;-3.20;99.90
18741;DHT22;9499;52.472;13.448;2023-12-04T00:58:21;-3.20;99.90
18741;DHT22;9499;52.472;13.448;2023-12-04T01:00:48;-3.20;99.90
18741;DHT22;9499;52.472;13.448;2023-12-04T01:03:17;-3.20;99.90
18741;DHT22;9499;52.472;13.448;2023-12-04T01:05:43;-3.20;99.90
18741;DHT22;9499;52.472;13.448;2023-12-04T01:08:10;-3.20;99.90
18741;DHT22;9499;52.472;13.448;2023-12-04T01:10:38;-3.30;99.90
18741;DHT22;9499;52.472;13.448;2023-12-04T01:13:05;-3.30;99.90
18741;DHT22;9499;52.472;13.448;2023-12-04T01:15:35;-3.30;99.90
18741;DHT22;9499;52.472;13.448;2023-12-04T01:18:01;-3.30;99.90
18741;DHT22;9499;52.472;13.448;2023-12-04T01:20:28;-3.30;99.90
18741;DHT22;9499;52.472;13.448;2023-12-04T01:22:54;-3.30;99.90
18741;DHT22;9499;52.472;13.448;2023-12-04T01:25:21;-3.30;99.90
18741;DHT22;9499;52.472;13.448;2023-12-04T01:27:48;-3.30;99.90
18741;DHT22;9499;52.472;13.448;2023-12-04T01:30:16;-3.30;99.90
18741;DHT22;9499;52.472;13.448;2023-12-04T01:32:44;-3.30;99.90
18741;DHT22;9499;52.472;13.448;2023-12-04T01:35:10;-3.30;99.90
18741;DHT22;9499;52.472;13.448;2023-12-04T01:37:37;-3.30;99.90
18741;DHT22;9499;52.472;13.448;2023-12-04T01:40:09;-3.30;99.90
18741;DHT22;9499;52.472;13.448;2023-12-04T01:42:35;-3.40;99.90
18741;DHT22;9499;52.472;13.448;2023-12-04T01:45:03;-3.30;99.90
18741;DHT22;9499;52.472;13.448;2023-12-04T01:47:32;-3.40;99.90
18741;DHT22;9499;52.472;13.448;2023-12-04T01:50:01;-3.40;99.90
18741;DHT22;9499;52.472;13.448;2023-12-04T01:52:30;-3.40;99.90
18741;DHT22;9499;52.472;13.448;2023-12-04T01:54:59;-3.40;99.90
18741;DHT22;9499;52.472;13.448;2023-12-04T01:57:27;-3.40;99.90
18741;DHT22;9499;52.472;13.448;2023-12-04T01:59:58;-3.40;99.90
18741;DHT22;9499;52.472;13.448;2023-12-04T02:02:24;-3.40;99.90
18741;DHT22;9499;52.472;13.448;2023-12-04T02:04:54;-3.50;99.90
18741;DHT22;9499;52.472;13.448;2023-12-04T02:07:23;-3.50;99.90
18741;DHT22;9499;52.472;13.448;2023-12-04T02:09:50;-3.50;99.90
18741;DHT22;9499;52.472;13.448;2023-12-04T02:12:18;-3.60;99.90
18741;DHT22;9499;52.472;13.448;2023-12-04T02:14:45;-3.60;99.90
18741;DHT22;9499;52.472;13.448;2023-12-04T02:17:15;-3.60;99.90
18741;DHT22;9499;52.472;13.448;2023-12-04T02:19:42;-3.70;99.90
18741;DHT22;9499;52.472;13.448;2023-12-04T02:22:09;-3.70;99.90
18741;DHT22;9499;52.472;13.448;2023-12-04T02:24:38;-3.70;99.90
18741;DHT22;9499;52.472;13.448;2023-12-04T02:27:12;-3.70;99.90
18741;DHT22;9499;52.472;13.448;2023-12-04T02:29:42;-3.70;99.90
18741;DHT22;9499;52.472;13.448;2023-12-04T02:32:15;-3.70;99.90
18741;DHT22;9499;52.472;13.448;2023-12-04T02:34:43;-3.70;99.90
18741;DHT22;9499;52.472;13.448;2023-12-04T02:37:11;-3.70;99.90
18741;DHT22;9499;52.472;13.448;2023-12-04T02:39:41;-3.60;99.90
18741;DHT22;9499;52.472;13.448;2023-12-04T02:42:08;-3.60;99.90
18741;DHT22;9499;52.472;13.448;2023-12-04T02:44:34;-3.60;99.90
18741;DHT22;9499;52.472;13.448;2023-12-04T02:47:01;-3.60;99.90
18741;DHT22;9499;52.472;13.448;2023-12-04T02:49:27;-3.60;99.90
18741;DHT22;9499;52.472;13.448;2023-12-04T02:51:54;-3.60;99.90
18741;DHT22;9499;52.472;13.448;2023-12-04T02:54:20;-3.60;99.90
18741;DHT22;9499;52.472;13.448;2023-12-04T02:56:48;-3.50;99.90
18741;DHT22;9499;52.472;13.448;2023-12-04T02:59:17;-3.60;99.90
18741;DHT22;9499;52.472;13.448;2023-12-04T03:01:43;-3.50;99.90
18741;DHT22;9499;52.472;13.448;2023-12-04T03:04:11;-3.60;99.90
18741;DHT22;9499;52.472;13.448;2023-12-04T03:06:37;-3.60;99.90
18741;DHT22;9499;52.472;13.448;2023-12-04T03:09:04;-3.60;99.90
18741;DHT22;9499;52.472;13.448;2023-12-04T03:11:31;-3.60;99.90
18741;DHT22;9499;52.472;13.448;2023-12-04T03:14:00;-3.60;99.90
18741;DHT22;9499;52.472;13.448;2023-12-04T03:16:26;-3.60;99.90
18741;DHT22;9499;52.472;13.448;2023-12-04T03:18:53;-3.70;99.90
18741;DHT22;9499;52.472;13.448;2023-12-04T03:21:19;-3.70;99.90
18741;DHT22;9499;52.472;13.448;2023-12-04T03:23:46;-3.70;99.90
18741;DHT22;9499;52.472;13.448;2023-12-04T03:26:12;-3.70;99.90
18741;DHT22;9499;52.472;13.448;2023-12-04T03:28:39;-3.70;99.90
18741;DHT22;9499;52.472;13.448;2023-12-04T03:31:08;-3.80;99.90
18741;DHT22;9499;52.472;13.448;2023-12-04T03:33:34;-3.80;99.90
18741;DHT22;9499;52.472;13.448;2023-12-04T03:36:01;-3.80;99.90
18741;DHT22;9499;52.472;13.448;2023-12-04T03:38:28;-3.80;99.90
18741;DHT22;9499;52.472;13.448;2023-12-04T03:40:55;-3.80;99.90
18741;DHT22;9499;52.472;13.448;2023-12-04T03:43:23;-3.80;99.90
18741;DHT22;9499;52.472;13.448;2023-12-04T03:45:50;-3.80;99.90
18741;DHT22;9499;52.472;13.448;2023-12-04T03:48:22;-3.80;99.90
18741;DHT22;9499;52.472;13.448;2023-12-04T03:50:49;-3.80;99.90
18741;DHT22;9499;52.472;13.448;2023-12-04T03:53:16;-3.80;99.90
18741;DHT22;9499;52.472;13.448;2023-12-04T03:55:42;-3.80;99.90
18741;DHT22;9499;52.472;13.448;2023-12-04T03:58:17;-3.80;99.90
18741;DHT22;9499;52.472;13.448;2023-12-04T04:00:43;-3.80;99.90
18741;DHT22;9499;52.472;13.448;2023-12-04T04:03:13;-3.80;99.90
18741;DHT22;9499;52.472;13.448;2023-12-04T04:05:41;-3.80;99.90
18741;DHT22;9499;52.472;13.448;2023-12-04T04:08:10;-3.80;99.90
18741;DHT22;9499;52.472;13.448;2023-12-04T04:10:40;-3.90;99.90
18741;DHT22;9499;52.472;13.448;2023-12-04T04:13:07;-3.90;99.90
18741;DHT22;9499;52.472;13.448;2023-12-04T04:15:36;-3.90;99.90
18741;DHT22;9499;52.472;13.448;2023-12-04T04:18:03;-3.90;99.90
18741;DHT22;9499;52.472;13.448;2023-12-04T04:20:32;-3.90;99.90
18741;DHT22;9499;52.472;13.448;2023-12-04T04:23:01;-3.80;99.90
18741;DHT22;9499;52.472;13.448;2023-12-04T04:25:27;-3.90;99.90
18741;DHT22;9499;52.472;13.448;2023-12-04T04:27:56;-3.90;99.90
18741;DHT22;9499;52.472;13.448;2023-12-04T04:30:24;-3.90;99.90
18741;DHT22;9499;52.472;13.448;2023-12-04T04:32:51;-3.90;99.90
18741;DHT22;9499;52.472;13.448;2023-12-04T04:35:19;-3.80;99.90
18741;DHT22;9499;52.472;13.448;2023-12-04T04:37:45;-3.80;99.90
18741;DHT22;9499;52.472;13.448;2023-12-04T04:40:13;-3.80;99.90
18741;DHT22;9499;52.472;13.448;2023-12-04T04:42:40;-3.80;99.90
18741;DHT22;9499;52.472;13.448;2023-12-04T04:45:09;-3.80;99.90
18741;DHT22;9499;52.472;13.448;2023-12-04T04:47:36;-3.80;99.90
18741;DHT22;9499;52.472;13.448;2023-12-04T04:50:03;-3.80;99.90
18741;DHT22;9499;52.472;13.448;2023-12-04T04:52:33;-3.80;99.90
18741;DHT22;9499;52.472;13.448;2023-12-04T04:54:59;-3.80;99.90
18741;DHT22;9499;52.472;13.448;2023-12-04T04:57:28;-3.80;99.90
18741;DHT22;9499;52.472;13.448;2023-12-04T04:59:54;-3.80;99.90
18741;DHT22;9499;52.472;13.448;2023-12-04T05:02:22;-3.70;99.90
18741;DHT22;9499;52.472;13.448;2023-12-04T05:04:52;-3.70;99.90
18741;DHT22;9499;52.472;13.448;2023-12-04T05:07:18;-3.70;99.90
18741;DHT22;9499;52.472;13.448;2023-12-04T05:09:45;-3.70;99.90
18741;DHT22;9499;52.472;13.448;2023-12-04T05:12:12;-3.60;99.90
18741;DHT22;9499;52.472;13.448;2023-12-04T05:14:46;-3.60;99.90
18741;DHT22;9499;52.472;13.448;2023-12-04T05:17:12;-3.60;99.90
18741;DHT22;9499;52.472;13.448;2023-12-04T05:19:39;-3.60;99.90
18741;DHT22;9499;52.472;13.448;2023-12-04T05:22:06;-3.60;99.90
18741;DHT22;9499;52.472;13.448;2023-12-04T05:24:32;-3.60;99.90
18741;DHT22;9499;52.472;13.448;2023-12-04T05:26:59;-3.70;99.90
18741;DHT22;9499;52.472;13.448;2023-12-04T05:29:25;-3.60;99.90
18741;DHT22;9499;52.472;13.448;2023-12-04T05:31:53;-3.70;99.90
18741;DHT22;9499;52.472;13.448;2023-12-04T05:34:20;-3.70;99.90
18741;DHT22;9499;52.472;13.448;2023-12-04T05:36:48;-3.70;99.90
18741;DHT22;9499;52.472;13.448;2023-12-04T05:39:15;-3.70;99.90
18741;DHT22;9499;52.472;13.448;2023-12-04T05:41:41;-3.70;99.90
18741;DHT22;9499;52.472;13.448;2023-12-04T05:44:12;-3.70;99.90
18741;DHT22;9499;52.472;13.448;2023-12-04T05:46:40;-3.60;99.90
18741;DHT22;9499;52.472;13.448;2023-12-04T05:49:08;-3.60;99.90
18741;DHT22;9499;52.472;13.448;2023-12-04T05:51:35;-3.60;99.90
18741;DHT22;9499;52.472;13.448;2023-12-04T05:54:02;-3.60;99.90
18741;DHT22;9499;52.472;13.448;2023-12-04T05:56:28;-3.60;99.90
18741;DHT22;9499;52.472;13.448;2023-12-04T05:58:55;-3.60;99.90
18741;DHT22;9499;52.472;13.448;2023-12-04T06:01:22;-3.50;99.90
18741;DHT22;9499;52.472;13.448;2023-12-04T06:03:49;-3.60;99.90
18741;DHT22;9499;52.472;13.448;2023-12-04T06:06:19;-3.50;99.90
18741;DHT22;9499;52.472;13.448;2023-12-04T06:08:47;-3.50;99.90
18741;DHT22;9499;52.472;13.448;2023-12-04T06:11:42;-3.40;99.90
18741;DHT22;9499;52.472;13.448;2023-12-04T06:14:08;-3.40;99.90
18741;DHT22;9499;52.472;13.448;2023-12-04T06:16:36;-3.40;99.90
18741;DHT22;9499;52.472;13.448;2023-12-04T06:19:02;-3.40;99.90
18741;DHT22;9499;52.472;13.448;2023-12-04T06:21:29;-3.40;99.90
18741;DHT22;9499;52.472;13.448;2023-12-04T06:23:56;-3.40;99.90
18741;DHT22;9499;52.472;13.448;2023-12-04T06:26:23;-3.40;99.90
18741;DHT22;9499;52.472;13.448;2023-12-04T06:28:52;-3.30;99.90
18741;DHT22;9499;52.472;13.448;2023-12-04T06:31:18;-3.30;99.90
18741;DHT22;9499;52.472;13.448;2023-12-04T06:33:45;-3.30;99.90
18741;DHT22;9499;52.472;13.448;2023-12-04T06:36:13;-3.20;99.90
18741;DHT22;9499;52.472;13.448;2023-12-04T06:38:41;-3.20;99.90
18741;DHT22;9499;52.472;13.448;2023-12-04T06:41:08;-3.20;99.90
18741;DHT22;9499;52.472;13.448;2023-12-04T06:43:36;-3.20;99.90
18741;DHT22;9499;52.472;13.448;2023-12-04T06:46:05;-3.20;99.90
18741;DHT22;9499;52.472;13.448;2023-12-04T06:48:32;-3.10;99.90
18741;DHT22;9499;52.472;13.448;2023-12-04T06:50:59;-3.10;99.90
18741;DHT22;9499;52.472;13.448;2023-12-04T06:53:25;-3.20;99.90
18741;DHT22;9499;52.472;13.448;2023-12-04T06:55:52;-3.20;99.90
18741;DHT22;9499;52.472;13.448;2023-12-04T06:58:18;-3.20;99.90
18741;DHT22;9499;52.472;13.448;2023-12-04T07:00:45;-3.20;99.90
18741;DHT22;9499;52.472;13.448;2023-12-04T07:03:13;-3.20;99.90
18741;DHT22;9499;52.472;13.448;2023-12-04T07:05:39;-3.20;99.90
18741;DHT22;9499;52.472;13.448;2023-12-04T07:08:06;-3.10;99.90
18741;DHT22;9499;52.472;13.448;2023-12-04T07:10:32;-3.10;99.90
18741;DHT22;9499;52.472;13.448;2023-12-04T07:12:59;-3.10;99.90
18741;DHT22;9499;52.472;13.448;2023-12-04T07:15:25;-3.10;99.90
18741;DHT22;9499;52.472;13.448;2023-12-04T07:17:52;-3.10;99.90
18741;DHT22;9499;52.472;13.448;2023-12-04T07:20:20;-3.10;99.90
18741;DHT22;9499;52.472;13.448;2023-12-04T07:22:49;-3.10;99.90
18741;DHT22;9499;52.472;13.448;2023-12-04T07:25:15;-3.10;99.90
18741;DHT22;9499;52.472;13.448;2023-12-04T07:27:42;-3.10;99.90
18741;DHT22;9499;52.472;13.448;2023-12-04T07:30:09;-3.10;99.90
18741;DHT22;9499;52.472;13.448;2023-12-04T07:32:36;-3.10;99.90
18741;DHT22;9499;52.472;13.448;2023-12-04T07:35:03;-3.10;99.90
18741;DHT22;9499;52.472;13.448;2023-12-04T07:37:31;-3.10;99.90
18741;DHT22;9499;52.472;13.448;2023-12-04T07:39:57;-3.10;99.90
18741;DHT22;9499;52.472;13.448;2023-12-04T07:42:24;-3.10;99.90
18741;DHT22;9499;52.472;13.448;2023-12-04T07:44:50;-3.00;99.90
18741;DHT22;9499;52.472;13.448;2023-12-04T07:47:17;-3.00;99.90
18741;DHT22;9499;52.472;13.448;2023-12-04T07:49:45;-3.00;98.50
18741;DHT22;9499;52.472;13.448;2023-12-04T07:52:11;-3.00;97.80
18741;DHT22;9499;52.472;13.448;2023-12-04T07:54:40;-3.00;95.10
18741;DHT22;9499;52.472;13.448;2023-12-04T07:57:06;-3.00;92.60
18741;DHT22;9499;52.472;13.448;2023-12-04T07:59:32;-2.90;92.30
18741;DHT22;9499;52.472;13.448;2023-12-04T08:02:00;-2.90;92.60
18741;DHT22;9499;52.472;13.448;2023-12-04T08:04:26;-2.90;92.90
18741;DHT22;9499;52.472;13.448;2023-12-04T08:06:53;-2.80;91.80
18741;DHT22;9499;52.472;13.448;2023-12-04T08:09:19;-2.80;93.30
18741;DHT22;9499;52.472;13.448;2023-12-04T08:11:47;-2.70;94.10
18741;DHT22;9499;52.472;13.448;2023-12-04T08:14:14;-2.70;92.90
18741;DHT22;9499;52.472;13.448;2023-12-04T08:16:41;-2.70;89.00
18741;DHT22;9499;52.472;13.448;2023-12-04T08:19:07;-2.60;86.20
18741;DHT22;9499;52.472;13.448;2023-12-04T08:21:34;-2.50;81.90
18741;DHT22;9499;52.472;13.448;2023-12-04T08:24:00;-2.50;76.50
18741;DHT22;9499;52.472;13.448;2023-12-04T08:26:27;-2.50;63.30
18741;DHT22;9499;52.472;13.448;2023-12-04T08:28:55;-2.50;56.00
18741;DHT22;9499;52.472;13.448;2023-12-04T08:31:22;-2.50;52.80
18741;DHT22;9499;52.472;13.448;2023-12-04T08:33:48;-2.40;54.30
18741;DHT22;9499;52.472;13.448;2023-12-04T08:36:15;-2.40;54.10
18741;DHT22;9499;52.472;13.448;2023-12-04T08:38:42;-2.30;54.50
18741;DHT22;9499;52.472;13.448;2023-12-04T08:41:08;-2.30;52.50
18741;DHT22;9499;52.472;13.448;2023-12-04T08:43:34;-2.20;51.40
18741;DHT22;9499;52.472;13.448;2023-12-04T08:46:03;-2.20;46.00
18741;DHT22;9499;52.472;13.448;2023-12-04T08:48:29;-2.20;43.40
18741;DHT22;9499;52.472;13.448;2023-12-04T08:50:56;-2.10;39.20
18741;DHT22;9499;52.472;13.448;2023-12-04T08:53:22;-2.10;35.10
18741;DHT22;9499;52.472;13.448;2023-12-04T08:55:49;-2.10;27.30
18741;DHT22;9499;52.472;13.448;2023-12-04T08:58:17;-2.10;26.10
18741;DHT22;9499;52.472;13.448;2023-12-04T09:00:43;-2.00;21.50
18741;DHT22;9499;52.472;13.448;2023-12-04T09:03:11;-2.00;10.70
18741;DHT22;9499;52.472;13.448;2023-12-04T09:05:38;-2.00;1.00
18741;DHT22;9499;52.472;13.448;2023-12-04T09:08:04;-2.10;1.00
18741;DHT22;9499;52.472;13.448;2023-12-04T09:10:32;-2.00;1.00
18741;DHT22;9499;52.472;13.448;2023-12-04T09:12:58;-2.00;1.00
18741;DHT22;9499;52.472;13.448;2023-12-04T09:15:25;-2.00;1.00
18741;DHT22;9499;52.472;13.448;2023-12-04T09:17:52;-2.00;1.00
18741;DHT22;9499;52.472;13.448;2023-12-04T09:20:20;-2.00;1.00
18741;DHT22;9499;52.472;13.448;2023-12-04T09:22:46;-1.90;1.00
18741;DHT22;9499;52.472;13.448;2023-12-04T09:25:13;-1.90;1.00
18741;DHT22;9499;52.472;13.448;2023-12-04T09:27:39;-1.90;1.00
18741;DHT22;9499;52.472;13.448;2023-12-04T09:30:07;-1.90;1.00
18741;DHT22;9499;52.472;13.448;2023-12-04T09:32:33;-1.90;1.00
18741;DHT22;9499;52.472;13.448;2023-12-04T09:35:00;-1.80;1.00
18741;DHT22;9499;52.472;13.448;2023-12-04T09:37:28;-1.80;1.00
18741;DHT22;9499;52.472;13.448;2023-12-04T09:39:54;-1.80;1.00
18741;DHT22;9499;52.472;13.448;2023-12-04T09:42:21;-1.80;1.00
18741;DHT22;9499;52.472;13.448;2023-12-04T09:44:48;-1.70;1.00
18741;DHT22;9499;52.472;13.448;2023-12-04T09:47:17;-1.70;1.00
18741;DHT22;9499;52.472;13.448;2023-12-04T09:49:44;-1.70;1.00
18741;DHT22;9499;52.472;13.448;2023-12-04T09:52:11;-1.70;1.00
18741;DHT22;9499;52.472;13.448;2023-12-04T09:54:39;-1.70;1.00
18741;DHT22;9499;52.472;13.448;2023-12-04T09:57:06;-1.70;1.00
18741;DHT22;9499;52.472;13.448;2023-12-04T09:59:33;-1.60;1.00
18741;DHT22;9499;52.472;13.448;2023-12-04T10:02:01;-1.60;1.00
18741;DHT22;9499;52.472;13.448;2023-12-04T10:04:27;-1.60;1.00
18741;DHT22;9499;52.472;13.448;2023-12-04T10:06:54;-1.50;1.00
18741;DHT22;9499;52.472;13.448;2023-12-04T10:09:20;-1.50;1.00
18741;DHT22;9499;52.472;13.448;2023-12-04T10:11:50;-1.50;1.00
18741;DHT22;9499;52.472;13.448;2023-12-04T10:14:18;-1.40;1.00
18741;DHT22;9499;52.472;13.448;2023-12-04T10:16:45;-1.40;1.00
18741;DHT22;9499;52.472;13.448;2023-12-04T10:19:17;-1.30;1.00
18741;DHT22;9499;52.472;13.448;2023-12-04T10:21:45;-1.30;1.00
18741;DHT22;9499;52.472;13.448;2023-12-04T10:24:13;-1.20;1.00
18741;DHT22;9499;52.472;13.448;2023-12-04T10:26:53;-1.10;1.00
18741;DHT22;9499;52.472;13.448;2023-12-04T10:29:20;-1.10;1.00
18741;DHT22;9499;52.472;13.448;2023-12-04T10:31:46;-1.10;1.00
18741;DHT22;9499;52.472;13.448;2023-12-04T10:34:15;-1.10;1.00
18741;DHT22;9499;52.472;13.448;2023-12-04T10:36:42;-1.00;1.00
18741;DHT22;9499;52.472;13.448;2023-12-04T10:39:11;-1.00;1.00
18741;DHT22;9499;52.472;13.448;2023-12-04T10:41:38;-0.90;1.00
18741;DHT22;9499;52.472;13.448;2023-12-04T10:44:06;-0.80;1.00
18741;DHT22;9499;52.472;13.448;2023-12-04T10:46:35;-0.80;1.00
18741;DHT22;9499;52.472;13.448;2023-12-04T10:49:03;-0.80;1.00
18741;DHT22;9499;52.472;13.448;2023-12-04T10:51:30;-0.80;1.00
18741;DHT22;9499;52.472;13.448;2023-12-04T10:53:57;-0.70;1.00
18741;DHT22;9499;52.472;13.448;2023-12-04T10:56:31;-0.60;1.00
18741;DHT22;9499;52.472;13.448;2023-12-04T10:59:03;-0.50;1.00
18741;DHT22;9499;52.472;13.448;2023-12-04T11:01:36;-0.40;1.00
18741;DHT22;9499;52.472;13.448;2023-12-04T11:04:07;-0.50;99.90
18741;DHT22;9499;52.472;13.448;2023-12-04T11:06:39;-0.50;99.90
18741;DHT22;9499;52.472;13.448;2023-12-04T11:09:07;-0.40;99.90
18741;DHT22;9499;52.472;13.448;2023-12-04T11:11:35;-0.40;99.90
18741;DHT22;9499;52.472;13.448;2023-12-04T11:14:07;-0.50;99.90
18741;DHT22;9499;52.472;13.448;2023-12-04T11:16:44;-0.40;99.90
18741;DHT22;9499;52.472;13.448;2023-12-04T11:19:18;-0.40;99.90
18741;DHT22;9499;52.472;13.448;2023-12-04T11:21:45;-0.40;99.90
18741;DHT22;9499;52.472;13.448;2023-12-04T11:24:12;-0.40;99.90
18741;DHT22;9499;52.472;13.448;2023-12-04T11:26:39;-0.50;99.90
18741;DHT22;9499;52.472;13.448;2023-12-04T11:29:06;-0.40;99.90
18741;DHT22;9499;52.472;13.448;2023-12-04T11:31:34;-0.40;99.90
18741;DHT22;9499;52.472;13.448;2023-12-04T11:34:03;-0.40;99.90
18741;DHT22;9499;52.472;13.448;2023-12-04T11:36:30;-0.40;99.90
18741;DHT22;9499;52.472;13.448;2023-12-04T11:38:56;-0.40;99.90
18741;DHT22;9499;52.472;13.448;2023-12-04T11:41:24;-0.40;99.90
18741;DHT22;9499;52.472;13.448;2023-12-04T11:43:51;-0.30;99.90
18741;DHT22;9499;52.472;13.448;2023-12-04T11:46:19;-0.30;99.90
18741;DHT22;9499;52.472;13.448;2023-12-04T11:48:48;-0.10;99.90
18741;DHT22;9499;52.472;13.448;2023-12-04T11:51:45;-0.10;99.90
18741;DHT22;9499;52.472;13.448;2023-12-04T11:54:17;0.00;99.90
18741;DHT22;9499;52.472;13.448;2023-12-04T11:56:56;0.00;99.90
18741;DHT22;9499;52.472;13.448;2023-12-04T11:59:23;0.00;1.00
18741;DHT22;9499;52.472;13.448;2023-12-04T12:01:50;0.00;1.00
18741;DHT22;9499;52.472;13.448;2023-12-04T12:04:18;0.00;1.00
18741;DHT22;9499;52.472;13.448;2023-12-04T12:06:46;0.00;1.00
18741;DHT22;9499;52.472;13.448;2023-12-04T12:09:12;0.00;1.00
18741;DHT22;9499;52.472;13.448;2023-12-04T12:11:40;0.10;1.00
18741;DHT22;9499;52.472;13.448;2023-12-04T12:14:06;0.10;1.00
18741;DHT22;9499;52.472;13.448;2023-12-04T12:16:33;0.10;1.00
18741;DHT22;9499;52.472;13.448;2023-12-04T12:19:01;0.20;1.00
18741;DHT22;9499;52.472;13.448;2023-12-04T12:21:28;0.20;1.00
18741;DHT22;9499;52.472;13.448;2023-12-04T12:23:56;0.10;1.00
18741;DHT22;9499;52.472;13.448;2023-12-04T12:26:23;0.10;1.00
18741;DHT22;9499;52.472;13.448;2023-12-04T12:28:49;0.10;1.00
18741;DHT22;9499;52.472;13.448;2023-12-04T12:31:16;0.10;1.00
18741;DHT22;9499;52.472;13.448;2023-12-04T12:33:43;0.10;1.00
18741;DHT22;9499;52.472;13.448;2023-12-04T12:36:11;0.10;1.00
18741;DHT22;9499;52.472;13.448;2023-12-04T12:38:38;0.10;1.00
18741;DHT22;9499;52.472;13.448;2023-12-04T12:41:07;0.10;1.00
18741;DHT22;9499;52.472;13.448;2023-12-04T12:43:35;0.10;1.00
18741;DHT22;9499;52.472;13.448;2023-12-04T12:46:02;0.10;1.00
18741;DHT22;9499;52.472;13.448;2023-12-04T12:48:31;0.00;1.00
18741;DHT22;9499;52.472;13.448;2023-12-04T12:50:58;0.00;45.60
18741;DHT22;9499;52.472;13.448;2023-12-04T12:53:25;0.00;99.90
18741;DHT22;9499;52.472;13.448;2023-12-04T12:55:51;0.00;99.90
18741;DHT22;9499;52.472;13.448;2023-12-04T12:58:19;0.00;99.90
18741;DHT22;9499;52.472;13.448;2023-12-04T13:00:46;0.00;99.90
18741;DHT22;9499;52.472;13.448;2023-12-04T13:03:16;0.10;99.90
18741;DHT22;9499;52.472;13.448;2023-12-04T13:05:43;0.00;99.90
18741;DHT22;9499;52.472;13.448;2023-12-04T13:08:10;0.00;99.90
18741;DHT22;9499;52.472;13.448;2023-12-04T13:10:36;0.00;99.90
18741;DHT22;9499;52.472;13.448;2023-12-04T13:13:03;0.00;99.90
18741;DHT22;9499;52.472;13.448;2023-12-04T13:15:31;0.00;99.90
18741;DHT22;9499;52.472;13.448;2023-12-04T13:17:58;0.00;99.90
18741;DHT22;9499;52.472;13.448;2023-12-04T13:20:24;0.00;99.90
18741;DHT22;9499;52.472;13.448;2023-12-04T13:22:51;0.00;99.90
18741;DHT22;9499;52.472;13.448;2023-12-04T13:25:17;-0.10;99.90
18741;DHT22;9499;52.472;13.448;2023-12-04T13:27:46;-0.10;99.90
18741;DHT22;9499;52.472;13.448;2023-12-04T13:30:12;-0.10;99.90
18741;DHT22;9499;52.472;13.448;2023-12-04T13:32:42;-0.10;99.90
18741;DHT22;9499;52.472;13.448;2023-12-04T13:35:09;-0.10;99.90
18741;DHT22;9499;52.472;13.448;2023-12-04T13:37:37;-0.10;99.90
18741;DHT22;9499;52.472;13.448;2023-12-04T13:40:05;-0.10;99.90
18741;DHT22;9499;52.472;13.448;2023-12-04T13:42:34;-0.10;99.90
18741;DHT22;9499;52.472;13.448;2023-12-04T13:45:18;-0.10;1.00
18741;DHT22;9499;52.472;13.448;2023-12-04T13:47:48;-0.10;1.00
18741;DHT22;9499;52.472;13.448;2023-12-04T13:50:15;-0.10;1.00
18741;DHT22;9499;52.472;13.448;2023-12-04T13:52:41;-0.10;1.00
18741;DHT22;9499;52.472;13.448;2023-12-04T13:55:09;-0.10;1.00
18741;DHT22;9499;52.472;13.448;2023-12-04T13:57:42;-0.10;1.00
18741;DHT22;9499;52.472;13.448;2023-12-04T14:00:21;-0.10;1.00
18741;DHT22;9499;52.472;13.448;2023-12-04T14:02:49;-0.20;1.00
18741;DHT22;9499;52.472;13.448;2023-12-04T14:05:18;-0.20;1.00
18741;DHT22;9499;52.472;13.448;2023-12-04T14:07:47;-0.20;1.00
18741;DHT22;9499;52.472;13.448;2023-12-04T14:10:13;-0.20;1.00
18741;DHT22;9499;52.472;13.448;2023-12-04T14:12:40;-0.20;1.00
18741;DHT22;9499;52.472;13.448;2023-12-04T14:15:07;-0.20;1.00
18741;DHT22;9499;52.472;13.448;2023-12-04T14:17:34;-0.30;1.00
18741;DHT22;9499;52.472;13.448;2023-12-04T14:20:02;-0.20;1.00
18741;DHT22;9499;52.472;13.448;2023-12-04T14:22:36;-0.20;1.00
18741;DHT22;9499;52.472;13.448;2023-12-04T14:25:03;-0.20;1.00
18741;DHT22;9499;52.472;13.448;2023-12-04T14:27:33;-0.30;1.00
18741;DHT22;9499;52.472;13.448;2023-12-04T14:30:00;-0.30;1.00
18741;DHT22;9499;52.472;13.448;2023-12-04T14:32:27;-0.30;1.00
18741;DHT22;9499;52.472;13.448;2023-12-04T14:34:53;-0.20;1.00
18741;DHT22;9499;52.472;13.448;2023-12-04T14:37:22;-0.30;1.00
18741;DHT22;9499;52.472;13.448;2023-12-04T14:39:48;-0.30;1.00
18741;DHT22;9499;52.472;13.448;2023-12-04T14:42:15;-0.30;1.00
18741;DHT22;9499;52.472;13.448;2023-12-04T14:44:41;-0.40;1.00
18741;DHT22;9499;52.472;13.448;2023-12-04T14:47:07;-0.40;1.00
18741;DHT22;9499;52.472;13.448;2023-12-04T14:49:37;-0.40;1.00
18741;DHT22;9499;52.472;13.448;2023-12-04T14:52:04;-0.40;1.00
18741;DHT22;9499;52.472;13.448;2023-12-04T14:54:33;-0.40;1.00
18741;DHT22;9499;52.472;13.448;2023-12-04T14:57:17;-0.40;1.00
18741;DHT22;9499;52.472;13.448;2023-12-04T15:00:15;-0.40;1.00
18741;DHT22;9499;52.472;13.448;2023-12-04T15:02:59;-0.40;1.00
18741;DHT22;9499;52.472;13.448;2023-12-04T15:06:11;-0.40;1.00
18741;DHT22;9499;52.472;13.448;2023-12-04T15:09:01;-0.40;1.00
18741;DHT22;9499;52.472;13.448;2023-12-04T15:12:12;-0.40;1.00
18741;DHT22;9499;52.472;13.448;2023-12-04T15:14:48;-0.40;1.00
18741;DHT22;9499;52.472;13.448;2023-12-04T15:17:20;-0.40;1.00
18741;DHT22;9499;52.472;13.448;2023-12-04T15:19:58;-0.40;1.00
18741;DHT22;9499;52.472;13.448;2023-12-04T15:22:45;-0.40;1.00
18741;DHT22;9499;52.472;13.448;2023-12-04T15:25:12;-0.40;1.00
18741;DHT22;9499;52.472;13.448;2023-12-04T15:27:40;-0.40;1.00
18741;DHT22;9499;52.472;13.448;2023-12-04T15:30:06;-0.40;1.00
18741;DHT22;9499;52.472;13.448;2023-12-04T15:32:34;-0.40;1.00
18741;DHT22;9499;52.472;13.448;2023-12-04T15:34:59;-0.40;1.00
18741;DHT22;9499;52.472;13.448;2023-12-04T15:37:26;-0.40;1.00
18741;DHT22;9499;52.472;13.448;2023-12-04T15:39:51;-0.40;1.00
18741;DHT22;9499;52.472;13.448;2023-12-04T15:42:19;-0.40;1.00
18741;DHT22;9499;52.472;13.448;2023-12-04T15:44:46;-0.40;1.00